createdAt,value
2022-09-16T00:00:57.805Z,14.15
2022-09-16T00:03:25.459Z,14.14
2022-09-16T00:05:54.783Z,14.12
2022-09-16T00:08:22.982Z,14.08
2022-09-16T00:10:51.046Z,14.07
2022-09-16T00:13:19.484Z,14.04
2022-09-16T00:15:50.961Z,14.00
2022-09-16T00:18:20.348Z,13.95
2022-09-16T00:20:49.843Z,13.95
2022-09-16T00:23:19.629Z,13.95
2022-09-16T00:25:52.462Z,13.93
2022-09-16T00:28:21.574Z,13.93
2022-09-16T00:30:49.771Z,13.93
2022-09-16T00:33:18.128Z,13.92
2022-09-16T00:35:45.632Z,13.89
2022-09-16T00:38:13.126Z,13.86
2022-09-16T00:40:47.427Z,13.82
2022-09-16T00:43:15.926Z,13.78
2022-09-16T00:45:47.673Z,13.76
2022-09-16T00:48:20.027Z,13.74
2022-09-16T00:50:51.362Z,13.71
2022-09-16T00:53:23.723Z,13.70
2022-09-16T00:55:55.627Z,13.68
2022-09-16T00:58:31.516Z,13.67
2022-09-16T01:00:59.126Z,13.68
2022-09-16T01:03:28.961Z,13.66
2022-09-16T01:05:56.501Z,13.63
2022-09-16T01:08:24.795Z,13.60
2022-09-16T01:10:53.694Z,13.55
2022-09-16T01:13:21.324Z,13.50
2022-09-16T01:15:57.402Z,13.49
2022-09-16T01:18:29.762Z,13.47
2022-09-16T01:21:08.111Z,13.43
2022-09-16T01:24:04.116Z,13.43
2022-09-16T01:27:06.869Z,13.42
2022-09-16T01:29:48.832Z,13.40
2022-09-16T01:32:25.837Z,13.36
2022-09-16T01:35:02.685Z,13.32
2022-09-16T01:37:37.130Z,13.27
2022-09-16T01:40:11.835Z,13.25
2022-09-16T01:42:47.110Z,13.23
2022-09-16T01:45:35.678Z,13.23
2022-09-16T01:48:12.945Z,13.23
2022-09-16T01:50:46.984Z,13.24
2022-09-16T01:53:19.279Z,13.21
2022-09-16T01:55:52.569Z,13.20
2022-09-16T01:58:24.601Z,13.16
2022-09-16T02:00:56.258Z,13.16
2022-09-16T02:03:29.552Z,13.15
2022-09-16T02:06:01.240Z,13.15
2022-09-16T02:08:34.386Z,13.14
2022-09-16T02:11:05.817Z,13.12
2022-09-16T02:13:36.727Z,13.12
2022-09-16T02:16:09.114Z,13.09
2022-09-16T02:18:41.706Z,13.06
2022-09-16T02:21:12.630Z,13.04
2022-09-16T02:23:43.482Z,13.02
2022-09-16T02:26:14.979Z,13.01
2022-09-16T02:28:45.424Z,13.01
2022-09-16T02:31:14.458Z,12.99
2022-09-16T02:33:48.613Z,13.00
2022-09-16T02:36:20.532Z,13.01
2022-09-16T02:38:52.836Z,13.00
2022-09-16T02:41:20.590Z,13.01
2022-09-16T02:43:48.045Z,13.00
2022-09-16T02:46:23.486Z,13.01
2022-09-16T02:48:59.592Z,13.02
2022-09-16T02:51:38.283Z,13.00
2022-09-16T02:54:13.224Z,12.99
2022-09-16T02:56:43.126Z,12.97
2022-09-16T02:59:13.246Z,12.97
2022-09-16T03:01:42.885Z,12.98
2022-09-16T03:04:14.152Z,12.99
2022-09-16T03:06:42.275Z,12.96
2022-09-16T03:09:12.390Z,12.95
2022-09-16T03:12:15.415Z,12.94
2022-09-16T03:14:55.102Z,12.91
2022-09-16T03:17:38.722Z,12.90
2022-09-16T03:20:17.402Z,12.87
2022-09-16T03:22:51.366Z,12.85
2022-09-16T03:25:29.917Z,12.89
2022-09-16T03:28:06.122Z,12.91
2022-09-16T03:30:39.441Z,12.94
2022-09-16T03:33:14.423Z,12.94
2022-09-16T03:35:46.251Z,12.93
2022-09-16T03:38:14.982Z,12.97
2022-09-16T03:40:43.639Z,12.96
2022-09-16T03:43:12.888Z,12.90
2022-09-16T03:45:42.688Z,12.86
2022-09-16T03:48:11.169Z,12.83
2022-09-16T03:50:38.955Z,12.81
2022-09-16T03:53:07.903Z,12.78
2022-09-16T03:55:35.429Z,12.78
2022-09-16T03:58:03.071Z,12.78
2022-09-16T04:00:30.691Z,12.78
2022-09-16T04:02:59.926Z,12.77
2022-09-16T04:05:28.021Z,12.74
2022-09-16T04:07:55.585Z,12.72
2022-09-16T04:10:24.520Z,12.72
2022-09-16T04:12:52.260Z,12.71
2022-09-16T04:15:19.857Z,12.70
2022-09-16T04:17:47.507Z,12.70
2022-09-16T04:20:15.270Z,12.67
2022-09-16T04:22:42.781Z,12.66
2022-09-16T04:25:11.132Z,12.69
2022-09-16T04:27:40.336Z,12.69
2022-09-16T04:30:09.135Z,12.68
2022-09-16T04:32:36.631Z,12.71
2022-09-16T04:35:04.896Z,12.70
2022-09-16T04:37:32.503Z,12.71
2022-09-16T04:40:03.822Z,12.68
2022-09-16T04:42:32.342Z,12.68
2022-09-16T04:45:01.146Z,12.65
2022-09-16T04:47:29.324Z,12.64
2022-09-16T04:49:56.743Z,12.62
2022-09-16T04:52:24.215Z,12.61
2022-09-16T04:54:51.884Z,12.60
2022-09-16T04:57:19.316Z,12.55
2022-09-16T04:59:46.834Z,12.51
2022-09-16T05:02:16.080Z,12.52
2022-09-16T05:04:43.895Z,12.50
2022-09-16T05:07:12.304Z,12.49
2022-09-16T05:09:42.191Z,12.49
2022-09-16T05:12:10.877Z,12.50
2022-09-16T05:14:38.933Z,12.53
2022-09-16T05:17:07.521Z,12.55
2022-09-16T05:19:36.821Z,12.54
2022-09-16T05:22:07.280Z,12.56
2022-09-16T05:24:36.660Z,12.57
2022-09-16T05:27:05.643Z,12.59
2022-09-16T05:29:34.329Z,12.64
2022-09-16T05:32:03.017Z,12.67
2022-09-16T05:34:31.624Z,12.66
2022-09-16T05:40:16.584Z,12.67
2022-09-16T05:42:44.779Z,12.74
2022-09-16T05:45:25.633Z,12.77
2022-09-16T05:47:55.949Z,12.72
2022-09-16T05:50:24.128Z,12.75
2022-09-16T05:52:53.544Z,12.81
2022-09-16T05:55:21.598Z,12.84
2022-09-16T05:57:49.569Z,12.96
2022-09-16T06:00:18.039Z,13.04
2022-09-16T06:02:46.470Z,13.06
2022-09-16T06:05:18.501Z,13.07
2022-09-16T06:07:49.317Z,13.10
2022-09-16T06:10:22.014Z,13.07
2022-09-16T06:12:50.901Z,13.07
2022-09-16T06:15:19.290Z,13.14
2022-09-16T06:17:47.046Z,13.17
2022-09-16T06:20:16.201Z,13.20
2022-09-16T06:22:43.777Z,13.27
2022-09-16T06:25:11.883Z,13.32
2022-09-16T06:27:40.660Z,13.38
2022-09-16T06:30:09.127Z,13.53
2022-09-16T06:32:37.519Z,13.61
2022-09-16T06:35:05.688Z,13.66
2022-09-16T06:37:34.173Z,13.78
2022-09-16T06:40:01.698Z,13.88
2022-09-16T06:42:29.268Z,13.90
2022-09-16T06:45:06.419Z,13.90
2022-09-16T06:47:33.902Z,13.97
2022-09-16T06:50:01.528Z,14.03
2022-09-16T06:52:29.077Z,14.08
2022-09-16T06:54:56.997Z,14.12
2022-09-16T06:57:24.894Z,14.22
2022-09-16T06:59:52.630Z,14.29
2022-09-16T07:02:21.482Z,14.78
2022-09-16T07:04:49.063Z,15.46
2022-09-16T07:07:16.722Z,15.55
2022-09-16T07:09:44.166Z,16.17
2022-09-16T07:12:17.540Z,16.11
2022-09-16T07:14:47.020Z,16.29
2022-09-16T07:17:14.792Z,16.25
2022-09-16T07:19:44.616Z,16.08
2022-09-16T07:22:12.172Z,15.97
2022-09-16T07:24:39.619Z,15.78
2022-09-16T07:27:07.372Z,15.56
2022-09-16T07:29:34.876Z,15.60
2022-09-16T07:32:02.665Z,16.31
2022-09-16T07:34:35.547Z,16.74
2022-09-16T07:37:08.497Z,16.70
2022-09-16T07:39:35.933Z,16.69
2022-09-16T07:42:06.200Z,17.04
2022-09-16T07:44:33.959Z,17.67
2022-09-16T07:47:43.558Z,18.50
2022-09-16T07:50:11.339Z,18.86
2022-09-16T07:52:40.164Z,18.62
2022-09-16T07:55:29.316Z,18.27
2022-09-16T07:58:02.116Z,17.79
2022-09-16T08:00:29.590Z,17.60
2022-09-16T08:05:48.394Z,17.15
2022-09-16T08:08:17.238Z,17.04
2022-09-16T08:10:46.863Z,17.07
2022-09-16T08:13:30.735Z,16.97
2022-09-16T08:17:19.013Z,16.85
2022-09-16T08:19:47.658Z,16.96
2022-09-16T08:25:18.964Z,16.88
2022-09-16T08:27:55.695Z,16.89
2022-09-16T08:30:24.130Z,16.94
2022-09-16T08:32:57.105Z,16.94
2022-09-16T08:35:25.799Z,16.97
2022-09-16T08:37:53.526Z,16.95
2022-09-16T08:40:26.336Z,16.82
2022-09-16T08:43:06.383Z,16.73
2022-09-16T08:45:43.044Z,16.69
2022-09-16T08:48:28.595Z,16.80
2022-09-16T08:51:02.312Z,16.90
2022-09-16T08:57:14.706Z,16.95
2022-09-16T08:59:47.454Z,17.30
2022-09-16T09:02:26.347Z,17.64
2022-09-16T09:04:56.797Z,18.02
2022-09-16T09:07:40.713Z,18.76
2022-09-16T09:10:20.761Z,18.78
2022-09-16T09:13:28.623Z,18.37
2022-09-16T09:20:06.212Z,19.06
2022-09-16T09:25:59.006Z,19.55
2022-09-16T09:29:00.234Z,19.44
2022-09-16T09:31:41.939Z,19.12
2022-09-16T09:34:23.752Z,18.87
2022-09-16T09:37:05.984Z,18.66
2022-09-16T09:40:04.499Z,18.41
2022-09-16T09:42:37.329Z,18.11
2022-09-16T09:45:31.958Z,17.95
2022-09-16T09:48:05.365Z,18.50
2022-09-16T09:50:42.030Z,19.12
2022-09-16T09:53:22.065Z,19.95
2022-09-16T09:55:53.615Z,20.47
2022-09-16T09:58:43.259Z,20.38
2022-09-16T10:01:14.724Z,20.30
2022-09-16T10:06:51.886Z,20.50
2022-09-16T10:09:20.707Z,20.58
2022-09-16T10:11:50.291Z,20.92
2022-09-16T10:14:25.490Z,20.88
2022-09-16T10:17:00.089Z,20.46
2022-09-16T10:19:29.293Z,20.71
2022-09-16T10:22:11.335Z,20.97
2022-09-16T10:24:42.017Z,21.48
2022-09-16T10:27:23.132Z,21.50
2022-09-16T10:30:17.987Z,21.88
2022-09-16T10:32:55.826Z,22.26
2022-09-16T10:35:26.328Z,22.04
2022-09-16T10:37:57.540Z,21.80
2022-09-16T10:41:30.152Z,21.52
2022-09-16T10:43:49.674Z,21.64
2022-09-16T10:46:19.421Z,22.03
2022-09-16T10:48:50.608Z,21.93
2022-09-16T10:51:24.665Z,21.75
2022-09-16T10:54:03.742Z,21.39
2022-09-16T10:56:33.873Z,21.21
2022-09-16T10:59:06.827Z,21.55
2022-09-16T11:01:47.597Z,22.03
2022-09-16T11:04:33.109Z,21.76
2022-09-16T11:07:11.346Z,21.39
2022-09-16T11:13:18.108Z,20.70
2022-09-16T11:16:00.555Z,20.70
2022-09-16T11:18:41.653Z,21.21
2022-09-16T11:21:34.014Z,21.86
2022-09-16T11:24:28.661Z,22.00
2022-09-16T11:27:05.903Z,21.59
2022-09-16T11:29:55.681Z,21.38
2022-09-16T11:32:33.553Z,21.60
2022-09-16T11:35:18.591Z,21.75
2022-09-16T11:37:53.820Z,22.04
2022-09-16T11:40:33.566Z,21.86
2022-09-16T11:43:20.069Z,21.65
2022-09-16T11:45:53.956Z,21.80
2022-09-16T11:48:36.883Z,21.67
2022-09-16T11:51:12.612Z,21.53
2022-09-16T11:53:54.492Z,21.28
2022-09-16T11:56:32.969Z,21.35
2022-09-16T11:59:08.488Z,21.64
2022-09-16T12:01:44.601Z,21.86
2022-09-16T12:04:20.427Z,22.09
2022-09-16T12:06:55.407Z,22.29
2022-09-16T12:09:34.609Z,22.40
2022-09-16T12:12:14.410Z,22.47
2022-09-16T12:14:44.443Z,22.41
2022-09-16T12:17:18.422Z,22.30
2022-09-16T12:19:53.123Z,22.22
2022-09-16T12:22:23.622Z,22.13
2022-09-16T12:25:01.264Z,22.02
2022-09-16T12:27:40.220Z,22.05
2022-09-16T12:30:16.064Z,22.05
2022-09-16T12:32:51.721Z,22.03
2022-09-16T12:35:25.013Z,22.13
2022-09-16T12:37:57.841Z,22.10
2022-09-16T12:40:28.929Z,22.24
2022-09-16T12:43:27.379Z,22.33
2022-09-16T12:46:19.133Z,22.22
2022-09-16T12:49:28.765Z,22.05
2022-09-16T12:52:17.670Z,21.85
2022-09-16T12:55:24.121Z,21.89
2022-09-16T12:58:13.652Z,21.90
2022-09-16T13:01:02.850Z,21.78
2022-09-16T13:06:15.953Z,21.41
2022-09-16T13:08:43.744Z,21.02
2022-09-16T13:12:16.481Z,20.71
2022-09-16T13:14:24.572Z,20.35
2022-09-16T13:16:57.347Z,20.29
2022-09-16T13:19:35.254Z,20.47
2022-09-16T13:22:14.969Z,20.72
2022-09-16T13:24:48.917Z,20.89
2022-09-16T13:27:54.527Z,21.02
2022-09-16T13:30:33.343Z,21.08
2022-09-16T13:33:04.649Z,21.05
2022-09-16T13:35:42.912Z,21.10
2022-09-16T13:38:25.954Z,20.96
2022-09-16T13:40:55.925Z,20.89
2022-09-16T13:43:31.284Z,20.62
2022-09-16T13:46:06.664Z,20.36
2022-09-16T13:48:40.385Z,20.24
2022-09-16T13:51:14.891Z,20.14
2022-09-16T13:53:46.300Z,20.05
2022-09-16T13:56:29.354Z,19.96
2022-09-16T13:59:05.340Z,19.91
2022-09-16T14:01:56.186Z,19.86
2022-09-16T14:04:42.103Z,19.78
2022-09-16T14:07:23.403Z,19.70
2022-09-16T14:10:00.933Z,19.60
2022-09-16T14:12:39.733Z,19.55
2022-09-16T14:15:09.355Z,19.39
2022-09-16T14:17:42.527Z,19.29
2022-09-16T14:20:17.154Z,19.30
2022-09-16T14:22:46.203Z,19.33
2022-09-16T14:25:29.699Z,19.28
2022-09-16T14:28:17.136Z,19.23
2022-09-16T14:30:50.545Z,19.14
2022-09-16T14:33:23.503Z,19.11
2022-09-16T14:35:56.282Z,19.10
2022-09-16T14:38:45.110Z,19.04
2022-09-16T14:41:29.501Z,19.04
2022-09-16T14:44:02.715Z,19.04
2022-09-16T14:46:31.383Z,19.03
2022-09-16T14:49:00.893Z,19.03
2022-09-16T14:51:28.791Z,18.97
2022-09-16T14:54:13.586Z,18.88
2022-09-16T14:56:41.822Z,18.83
2022-09-16T14:59:14.770Z,18.77
2022-09-16T15:01:45.680Z,18.76
2022-09-16T15:04:23.555Z,18.73
2022-09-16T15:06:59.710Z,18.69
2022-09-16T15:09:43.214Z,18.64
2022-09-16T15:12:22.650Z,18.61
2022-09-16T15:14:52.197Z,18.62
2022-09-16T15:17:26.079Z,18.63
2022-09-16T15:19:58.703Z,18.61
2022-09-16T15:22:27.289Z,18.58
2022-09-16T15:24:58.613Z,18.57
2022-09-16T15:27:29.243Z,18.50
2022-09-16T15:30:00.327Z,18.45
2022-09-16T15:32:31.856Z,18.42
2022-09-16T15:35:17.895Z,18.42
2022-09-16T15:37:47.414Z,18.48
2022-09-16T15:40:29.247Z,18.53
2022-09-16T15:43:07.059Z,18.53
2022-09-16T15:45:43.132Z,18.52
2022-09-16T15:48:21.292Z,18.53
2022-09-16T15:50:56.250Z,18.50
2022-09-16T15:53:43.566Z,18.50
2022-09-16T15:56:27.262Z,18.51
2022-09-16T15:58:59.181Z,18.51
2022-09-16T16:06:13.093Z,18.36
2022-09-16T16:09:11.883Z,18.31
2022-09-16T16:12:18.561Z,18.25
2022-09-16T16:19:22.377Z,18.13
2022-09-16T16:22:27.044Z,18.10
2022-09-16T16:25:30.367Z,18.06
2022-09-16T16:28:08.172Z,17.95
2022-09-16T16:30:35.882Z,17.91
2022-09-16T16:33:03.531Z,17.89
2022-09-16T16:35:31.129Z,17.83
2022-09-16T16:38:00.026Z,17.75
2022-09-16T16:40:27.631Z,17.72
2022-09-16T16:42:55.189Z,17.73
2022-09-16T16:45:22.902Z,17.67
2022-09-16T16:47:50.563Z,17.63
2022-09-16T16:50:18.256Z,17.58
2022-09-16T16:52:54.034Z,17.55
2022-09-16T16:55:22.958Z,17.54
2022-09-16T16:57:51.122Z,17.49
2022-09-16T17:00:19.555Z,17.49
2022-09-16T17:02:47.154Z,17.49
2022-09-16T17:05:14.768Z,17.43
2022-09-16T17:07:42.282Z,17.36
2022-09-16T17:10:11.125Z,17.30
2022-09-16T17:12:40.027Z,17.23
2022-09-16T17:15:09.394Z,17.13
2022-09-16T17:17:36.912Z,17.09
2022-09-16T17:20:04.880Z,17.05
2022-09-16T17:22:32.460Z,17.00
2022-09-16T17:25:01.783Z,16.95
2022-09-16T17:27:29.711Z,16.90
2022-09-16T17:30:01.056Z,16.80
2022-09-16T17:32:28.641Z,16.77
2022-09-16T17:34:56.181Z,16.74
2022-09-16T17:37:23.867Z,16.74
2022-09-16T17:39:51.859Z,16.71
2022-09-16T17:42:27.744Z,16.62
2022-09-16T17:45:00.743Z,16.50
2022-09-16T17:47:28.314Z,16.43
2022-09-16T17:49:56.831Z,16.39
2022-09-16T17:52:24.363Z,16.39
2022-09-16T17:54:51.858Z,16.38
2022-09-16T17:57:20.086Z,16.29
2022-09-16T17:59:47.539Z,16.22
2022-09-16T18:02:16.496Z,16.16
2022-09-16T18:04:44.135Z,16.11
2022-09-16T18:07:11.954Z,16.06
2022-09-16T18:09:40.579Z,15.98
2022-09-16T18:12:08.331Z,15.94
2022-09-16T18:14:35.968Z,15.92
2022-09-16T18:17:03.942Z,15.89
2022-09-16T18:19:40.466Z,15.82
2022-09-16T18:22:08.138Z,15.80
2022-09-16T18:24:37.100Z,15.74
2022-09-16T18:27:04.759Z,15.73
2022-09-16T18:29:32.315Z,15.64
2022-09-16T18:32:00.266Z,15.60
2022-09-16T18:34:32.687Z,15.58
2022-09-16T18:37:02.704Z,15.57
2022-09-16T18:39:30.357Z,15.53
2022-09-16T18:41:57.894Z,15.47
2022-09-16T18:44:25.550Z,15.44
2022-09-16T18:46:54.413Z,15.38
2022-09-16T18:49:23.980Z,15.34
2022-09-16T18:51:52.890Z,15.32
2022-09-16T18:54:24.969Z,15.30
2022-09-16T18:56:55.582Z,15.24
2022-09-16T18:59:26.857Z,15.19
2022-09-16T19:01:57.012Z,15.15
2022-09-16T19:04:27.550Z,15.13
2022-09-16T19:06:58.677Z,15.11
2022-09-16T19:09:27.481Z,15.09
2022-09-16T19:11:55.066Z,15.06
2022-09-16T19:14:24.678Z,15.04
2022-09-16T19:16:53.312Z,15.03
2022-09-16T19:19:22.045Z,15.04
2022-09-16T19:21:50.219Z,15.05
2022-09-16T19:24:19.883Z,15.07
2022-09-16T19:26:50.678Z,15.10
2022-09-16T19:29:19.026Z,15.11
2022-09-16T19:31:48.456Z,15.10
2022-09-16T19:34:17.124Z,15.11
2022-09-16T19:36:45.154Z,15.08
2022-09-16T19:39:13.830Z,15.07
2022-09-16T19:41:42.486Z,15.08
2022-09-16T19:44:15.635Z,15.10
2022-09-16T19:46:46.876Z,15.07
2022-09-16T19:49:17.324Z,15.03
2022-09-16T19:51:45.190Z,14.99
2022-09-16T19:54:13.248Z,14.92
2022-09-16T19:56:41.121Z,14.88
2022-09-16T19:59:08.954Z,14.82
2022-09-16T20:01:39.166Z,14.82
2022-09-16T20:04:09.429Z,14.82
2022-09-16T20:06:39.401Z,14.77
2022-09-16T20:09:09.497Z,14.73
2022-09-16T20:11:39.097Z,14.62
2022-09-16T20:14:08.946Z,14.53
2022-09-16T20:16:39.779Z,14.43
2022-09-16T20:19:09.932Z,14.34
2022-09-16T20:21:38.240Z,14.23
2022-09-16T20:24:07.781Z,14.12
2022-09-16T20:26:36.378Z,13.97
2022-09-16T20:29:05.330Z,13.85
2022-09-16T20:31:34.833Z,13.70
2022-09-16T20:34:05.155Z,13.61
2022-09-16T20:36:36.870Z,13.59
2022-09-16T20:39:05.513Z,13.58
2022-09-16T20:41:34.943Z,13.49
2022-09-16T20:44:03.105Z,13.31
2022-09-16T20:46:32.898Z,13.14
2022-09-16T20:49:05.124Z,12.99
2022-09-16T20:51:35.844Z,12.83
2022-09-16T20:54:07.727Z,12.64
2022-09-16T20:56:38.962Z,12.50
2022-09-16T20:59:08.123Z,12.37
2022-09-16T21:01:37.299Z,12.33
2022-09-16T21:04:07.589Z,12.23
2022-09-16T21:06:37.309Z,12.19
2022-09-16T21:09:07.059Z,12.12
2022-09-16T21:11:35.290Z,12.03
2022-09-16T21:14:06.411Z,11.95
2022-09-16T21:16:36.075Z,11.87
2022-09-16T21:19:05.790Z,11.79
2022-09-16T21:21:33.659Z,11.77
2022-09-16T21:24:02.937Z,11.74
2022-09-16T21:26:31.911Z,11.71
2022-09-16T21:29:00.895Z,11.69
2022-09-16T21:31:33.350Z,11.71
2022-09-16T21:34:02.995Z,11.71
2022-09-16T21:36:31.429Z,11.73
2022-09-16T21:38:59.345Z,11.72
2022-09-16T21:41:28.430Z,11.73
2022-09-16T21:43:57.167Z,11.71
2022-09-16T21:46:28.173Z,11.72
2022-09-16T21:48:58.420Z,11.73
2022-09-16T21:51:26.262Z,11.72
2022-09-16T21:53:53.845Z,11.71
2022-09-16T21:56:23.731Z,11.74
2022-09-16T21:58:55.526Z,11.80
2022-09-16T22:01:24.660Z,11.86
2022-09-16T22:03:55.132Z,11.89
2022-09-16T22:06:25.486Z,11.92
2022-09-16T22:08:54.087Z,11.93
2022-09-16T22:11:23.924Z,11.94
2022-09-16T22:13:53.730Z,12.00
2022-09-16T22:16:27.137Z,12.04
2022-09-16T22:18:55.828Z,12.08
2022-09-16T22:21:24.865Z,12.10
2022-09-16T22:23:53.023Z,12.16
2022-09-16T22:26:22.627Z,12.16
2022-09-16T22:28:50.693Z,12.21
2022-09-16T22:31:21.426Z,12.22
2022-09-16T22:33:51.219Z,12.22
2022-09-16T22:36:22.079Z,12.23
2022-09-16T22:38:51.113Z,12.27
2022-09-16T22:41:19.194Z,12.31
2022-09-16T22:43:50.417Z,12.34
2022-09-16T22:46:21.470Z,12.37
2022-09-16T22:48:49.959Z,12.39
2022-09-16T22:51:19.726Z,12.42
2022-09-16T22:53:48.667Z,12.44
2022-09-16T22:56:19.033Z,12.44
2022-09-16T22:58:47.251Z,12.43
2022-09-16T23:01:17.672Z,12.46
2022-09-16T23:03:48.171Z,12.46
2022-09-16T23:06:16.560Z,12.51
2022-09-16T23:08:46.401Z,12.55
2022-09-16T23:11:16.259Z,12.59
2022-09-16T23:13:45.353Z,12.62
2022-09-16T23:16:16.319Z,12.66
2022-09-16T23:18:46.477Z,12.70
2022-09-16T23:21:15.997Z,12.72
2022-09-16T23:23:45.026Z,12.70
2022-09-16T23:26:15.770Z,12.71
2022-09-16T23:28:43.787Z,12.70
2022-09-16T23:31:14.047Z,12.69
2022-09-16T23:33:42.830Z,12.68
2022-09-16T23:36:13.272Z,12.69
2022-09-16T23:38:42.394Z,12.69
2022-09-16T23:41:13.274Z,12.69
2022-09-16T23:43:42.272Z,12.71
2022-09-16T23:46:11.046Z,12.70
2022-09-16T23:48:39.431Z,12.70
2022-09-16T23:51:07.818Z,12.69
2022-09-16T23:53:37.746Z,12.71
2022-09-16T23:56:06.251Z,12.73
2022-09-16T23:58:34.374Z,12.74
